sensor_id;sensor_type;location;lat;lon;timestamp;P1;durP1;ratioP1;P2;durP2;ratioP2
13651;SDS011;6899;51.546;6.912;2022-11-20T00:01:20;24.30;;;14.50;;
13651;SDS011;6899;51.546;6.912;2022-11-20T00:03:48;27.73;;;16.17;;
13651;SDS011;6899;51.546;6.912;2022-11-20T00:06:21;24.23;;;15.20;;
13651;SDS011;6899;51.546;6.912;2022-11-20T00:08:48;27.93;;;16.57;;
13651;SDS011;6899;51.546;6.912;2022-11-20T00:11:17;32.07;;;18.67;;
13651;SDS011;6899;51.546;6.912;2022-11-20T00:13:47;30.73;;;17.77;;
13651;SDS011;6899;51.546;6.912;2022-11-20T00:16:15;33.27;;;17.97;;
13651;SDS011;6899;51.546;6.912;2022-11-20T00:18:43;28.43;;;16.53;;
13651;SDS011;6899;51.546;6.912;2022-11-20T00:21:12;28.10;;;16.03;;
13651;SDS011;6899;51.546;6.912;2022-11-20T00:23:44;33.37;;;18.67;;
13651;SDS011;6899;51.546;6.912;2022-11-20T00:26:12;33.70;;;19.27;;
13651;SDS011;6899;51.546;6.912;2022-11-20T00:28:43;35.07;;;20.07;;
13651;SDS011;6899;51.546;6.912;2022-11-20T00:31:15;31.93;;;18.73;;
13651;SDS011;6899;51.546;6.912;2022-11-20T00:33:43;31.27;;;17.53;;
13651;SDS011;6899;51.546;6.912;2022-11-20T00:36:11;34.30;;;17.37;;
13651;SDS011;6899;51.546;6.912;2022-11-20T00:38:51;29.50;;;16.40;;
13651;SDS011;6899;51.546;6.912;2022-11-20T00:41:25;31.40;;;18.03;;
13651;SDS011;6899;51.546;6.912;2022-11-20T00:43:53;31.40;;;17.87;;
13651;SDS011;6899;51.546;6.912;2022-11-20T00:46:21;29.20;;;16.50;;
13651;SDS011;6899;51.546;6.912;2022-11-20T00:48:49;27.33;;;15.83;;
13651;SDS011;6899;51.546;6.912;2022-11-20T00:51:20;32.70;;;17.23;;
13651;SDS011;6899;51.546;6.912;2022-11-20T00:53:54;30.10;;;15.83;;
13651;SDS011;6899;51.546;6.912;2022-11-20T00:56:25;29.40;;;16.83;;
13651;SDS011;6899;51.546;6.912;2022-11-20T00:58:52;29.57;;;16.23;;
13651;SDS011;6899;51.546;6.912;2022-11-20T01:01:22;29.13;;;16.20;;
13651;SDS011;6899;51.546;6.912;2022-11-20T01:03:51;25.83;;;15.23;;
13651;SDS011;6899;51.546;6.912;2022-11-20T01:06:22;27.43;;;16.07;;
13651;SDS011;6899;51.546;6.912;2022-11-20T01:08:51;29.73;;;17.07;;
13651;SDS011;6899;51.546;6.912;2022-11-20T01:11:22;28.20;;;16.10;;
13651;SDS011;6899;51.546;6.912;2022-11-20T01:13:50;30.10;;;14.73;;
13651;SDS011;6899;51.546;6.912;2022-11-20T01:16:19;30.13;;;17.53;;
13651;SDS011;6899;51.546;6.912;2022-11-20T01:18:48;29.00;;;17.93;;
13651;SDS011;6899;51.546;6.912;2022-11-20T01:21:16;25.07;;;14.07;;
13651;SDS011;6899;51.546;6.912;2022-11-20T01:23:45;29.93;;;17.33;;
13651;SDS011;6899;51.546;6.912;2022-11-20T01:26:15;28.47;;;16.13;;
13651;SDS011;6899;51.546;6.912;2022-11-20T01:28:43;31.50;;;17.77;;
13651;SDS011;6899;51.546;6.912;2022-11-20T01:31:10;29.10;;;16.37;;
13651;SDS011;6899;51.546;6.912;2022-11-20T01:33:44;28.27;;;15.63;;
13651;SDS011;6899;51.546;6.912;2022-11-20T01:36:13;30.37;;;17.43;;
13651;SDS011;6899;51.546;6.912;2022-11-20T01:38:41;28.00;;;15.03;;
13651;SDS011;6899;51.546;6.912;2022-11-20T01:41:08;26.33;;;15.27;;
13651;SDS011;6899;51.546;6.912;2022-11-20T01:43:57;27.83;;;16.23;;
13651;SDS011;6899;51.546;6.912;2022-11-20T01:46:23;28.00;;;16.20;;
13651;SDS011;6899;51.546;6.912;2022-11-20T01:48:51;27.53;;;16.70;;
13651;SDS011;6899;51.546;6.912;2022-11-20T01:51:23;28.93;;;16.30;;
13651;SDS011;6899;51.546;6.912;2022-11-20T01:53:52;25.53;;;15.00;;
13651;SDS011;6899;51.546;6.912;2022-11-20T01:56:22;27.27;;;16.20;;
13651;SDS011;6899;51.546;6.912;2022-11-20T01:58:52;28.80;;;16.63;;
13651;SDS011;6899;51.546;6.912;2022-11-20T02:01:22;27.53;;;15.77;;
13651;SDS011;6899;51.546;6.912;2022-11-20T02:03:49;35.90;;;17.77;;
13651;SDS011;6899;51.546;6.912;2022-11-20T02:06:17;31.40;;;17.47;;
13651;SDS011;6899;51.546;6.912;2022-11-20T02:08:50;32.40;;;17.40;;
13651;SDS011;6899;51.546;6.912;2022-11-20T02:11:17;28.97;;;16.63;;
13651;SDS011;6899;51.546;6.912;2022-11-20T02:13:49;31.37;;;18.77;;
13651;SDS011;6899;51.546;6.912;2022-11-20T02:16:16;25.47;;;15.10;;
13651;SDS011;6899;51.546;6.912;2022-11-20T02:18:48;35.93;;;19.37;;
13651;SDS011;6899;51.546;6.912;2022-11-20T02:21:30;28.40;;;16.47;;
13651;SDS011;6899;51.546;6.912;2022-11-20T02:24:07;28.07;;;16.07;;
13651;SDS011;6899;51.546;6.912;2022-11-20T02:26:46;26.40;;;16.97;;
13651;SDS011;6899;51.546;6.912;2022-11-20T02:29:17;25.43;;;15.27;;
13651;SDS011;6899;51.546;6.912;2022-11-20T02:31:49;26.53;;;16.07;;
13651;SDS011;6899;51.546;6.912;2022-11-20T02:34:17;27.30;;;16.20;;
13651;SDS011;6899;51.546;6.912;2022-11-20T02:36:44;27.60;;;15.70;;
13651;SDS011;6899;51.546;6.912;2022-11-20T02:39:13;27.97;;;16.07;;
13651;SDS011;6899;51.546;6.912;2022-11-20T02:41:42;24.10;;;14.87;;
13651;SDS011;6899;51.546;6.912;2022-11-20T02:44:09;28.43;;;16.03;;
13651;SDS011;6899;51.546;6.912;2022-11-20T02:46:36;26.17;;;15.60;;
13651;SDS011;6899;51.546;6.912;2022-11-20T02:49:03;30.37;;;17.47;;
13651;SDS011;6899;51.546;6.912;2022-11-20T02:51:31;33.77;;;18.53;;
13651;SDS011;6899;51.546;6.912;2022-11-20T02:53:58;28.53;;;18.27;;
13651;SDS011;6899;51.546;6.912;2022-11-20T02:56:26;31.20;;;18.57;;
13651;SDS011;6899;51.546;6.912;2022-11-20T02:58:56;30.37;;;18.37;;
13651;SDS011;6899;51.546;6.912;2022-11-20T03:01:26;31.63;;;18.87;;
13651;SDS011;6899;51.546;6.912;2022-11-20T03:03:53;36.03;;;19.53;;
13651;SDS011;6899;51.546;6.912;2022-11-20T03:06:23;30.67;;;18.53;;
13651;SDS011;6899;51.546;6.912;2022-11-20T03:08:50;31.70;;;19.00;;
13651;SDS011;6899;51.546;6.912;2022-11-20T03:11:17;33.73;;;18.37;;
13651;SDS011;6899;51.546;6.912;2022-11-20T03:13:45;33.83;;;20.37;;
13651;SDS011;6899;51.546;6.912;2022-11-20T03:16:13;31.37;;;17.57;;
13651;SDS011;6899;51.546;6.912;2022-11-20T03:18:45;32.53;;;19.73;;
13651;SDS011;6899;51.546;6.912;2022-11-20T03:21:12;33.07;;;19.67;;
13651;SDS011;6899;51.546;6.912;2022-11-20T03:23:40;34.67;;;20.43;;
13651;SDS011;6899;51.546;6.912;2022-11-20T03:26:08;33.23;;;19.13;;
13651;SDS011;6899;51.546;6.912;2022-11-20T03:28:36;33.27;;;19.53;;
13651;SDS011;6899;51.546;6.912;2022-11-20T03:31:09;32.33;;;19.97;;
13651;SDS011;6899;51.546;6.912;2022-11-20T03:33:37;27.67;;;17.00;;
13651;SDS011;6899;51.546;6.912;2022-11-20T03:36:06;32.63;;;20.27;;
13651;SDS011;6899;51.546;6.912;2022-11-20T03:38:34;32.23;;;19.67;;
13651;SDS011;6899;51.546;6.912;2022-11-20T03:41:01;30.60;;;18.93;;
13651;SDS011;6899;51.546;6.912;2022-11-20T03:43:29;34.87;;;19.60;;
13651;SDS011;6899;51.546;6.912;2022-11-20T03:45:56;28.73;;;17.20;;
13651;SDS011;6899;51.546;6.912;2022-11-20T03:48:25;25.77;;;16.47;;
13651;SDS011;6899;51.546;6.912;2022-11-20T03:50:52;31.97;;;19.43;;
13651;SDS011;6899;51.546;6.912;2022-11-20T03:53:19;30.00;;;18.43;;
13651;SDS011;6899;51.546;6.912;2022-11-20T03:55:50;28.70;;;18.00;;
13651;SDS011;6899;51.546;6.912;2022-11-20T03:58:17;31.17;;;19.13;;
13651;SDS011;6899;51.546;6.912;2022-11-20T04:00:44;31.00;;;17.53;;
13651;SDS011;6899;51.546;6.912;2022-11-20T04:03:19;31.60;;;18.63;;
13651;SDS011;6899;51.546;6.912;2022-11-20T04:05:48;28.53;;;17.83;;
13651;SDS011;6899;51.546;6.912;2022-11-20T04:08:14;34.63;;;19.30;;
13651;SDS011;6899;51.546;6.912;2022-11-20T04:10:41;28.17;;;16.27;;
13651;SDS011;6899;51.546;6.912;2022-11-20T04:13:08;33.60;;;19.80;;
13651;SDS011;6899;51.546;6.912;2022-11-20T04:15:35;27.10;;;17.33;;
13651;SDS011;6899;51.546;6.912;2022-11-20T04:18:02;32.43;;;19.13;;
13651;SDS011;6899;51.546;6.912;2022-11-20T04:20:29;30.80;;;19.10;;
13651;SDS011;6899;51.546;6.912;2022-11-20T04:22:57;29.30;;;17.57;;
13651;SDS011;6899;51.546;6.912;2022-11-20T04:25:23;29.70;;;17.90;;
13651;SDS011;6899;51.546;6.912;2022-11-20T04:27:50;32.30;;;20.20;;
13651;SDS011;6899;51.546;6.912;2022-11-20T04:30:17;28.50;;;18.33;;
13651;SDS011;6899;51.546;6.912;2022-11-20T04:32:44;29.17;;;17.20;;
13651;SDS011;6899;51.546;6.912;2022-11-20T04:35:11;30.23;;;17.97;;
13651;SDS011;6899;51.546;6.912;2022-11-20T04:37:50;28.70;;;16.97;;
13651;SDS011;6899;51.546;6.912;2022-11-20T04:40:19;30.03;;;18.03;;
13651;SDS011;6899;51.546;6.912;2022-11-20T04:42:46;27.50;;;17.53;;
13651;SDS011;6899;51.546;6.912;2022-11-20T04:45:15;28.13;;;17.63;;
13651;SDS011;6899;51.546;6.912;2022-11-20T04:47:42;31.00;;;17.73;;
13651;SDS011;6899;51.546;6.912;2022-11-20T04:50:09;32.83;;;19.57;;
13651;SDS011;6899;51.546;6.912;2022-11-20T04:52:36;31.93;;;16.70;;
13651;SDS011;6899;51.546;6.912;2022-11-20T04:55:03;27.60;;;17.13;;
13651;SDS011;6899;51.546;6.912;2022-11-20T04:57:35;34.77;;;20.93;;
13651;SDS011;6899;51.546;6.912;2022-11-20T05:00:02;30.37;;;17.90;;
13651;SDS011;6899;51.546;6.912;2022-11-20T05:02:30;29.07;;;17.07;;
13651;SDS011;6899;51.546;6.912;2022-11-20T05:04:57;27.50;;;16.47;;
13651;SDS011;6899;51.546;6.912;2022-11-20T05:07:27;26.33;;;16.00;;
13651;SDS011;6899;51.546;6.912;2022-11-20T05:09:54;32.07;;;19.13;;
13651;SDS011;6899;51.546;6.912;2022-11-20T05:12:20;28.00;;;17.07;;
13651;SDS011;6899;51.546;6.912;2022-11-20T05:14:48;29.47;;;16.83;;
13651;SDS011;6899;51.546;6.912;2022-11-20T05:17:15;30.43;;;17.57;;
13651;SDS011;6899;51.546;6.912;2022-11-20T05:19:42;29.83;;;17.83;;
13651;SDS011;6899;51.546;6.912;2022-11-20T05:22:15;25.77;;;16.07;;
13651;SDS011;6899;51.546;6.912;2022-11-20T05:24:42;34.37;;;19.43;;
13651;SDS011;6899;51.546;6.912;2022-11-20T05:27:11;29.83;;;17.17;;
13651;SDS011;6899;51.546;6.912;2022-11-20T05:29:38;30.87;;;17.73;;
13651;SDS011;6899;51.546;6.912;2022-11-20T05:32:12;29.13;;;17.07;;
13651;SDS011;6899;51.546;6.912;2022-11-20T05:34:45;28.30;;;17.77;;
13651;SDS011;6899;51.546;6.912;2022-11-20T05:37:11;31.73;;;19.07;;
13651;SDS011;6899;51.546;6.912;2022-11-20T05:39:38;34.60;;;19.83;;
13651;SDS011;6899;51.546;6.912;2022-11-20T05:42:05;33.87;;;19.03;;
13651;SDS011;6899;51.546;6.912;2022-11-20T05:44:49;29.37;;;18.87;;
13651;SDS011;6899;51.546;6.912;2022-11-20T05:47:17;33.83;;;20.00;;
13651;SDS011;6899;51.546;6.912;2022-11-20T05:49:44;35.87;;;20.17;;
13651;SDS011;6899;51.546;6.912;2022-11-20T05:52:11;32.20;;;19.87;;
13651;SDS011;6899;51.546;6.912;2022-11-20T05:54:38;33.93;;;20.93;;
13651;SDS011;6899;51.546;6.912;2022-11-20T05:57:05;30.93;;;19.23;;
13651;SDS011;6899;51.546;6.912;2022-11-20T05:59:31;27.00;;;17.40;;
13651;SDS011;6899;51.546;6.912;2022-11-20T06:01:58;32.30;;;19.23;;
13651;SDS011;6899;51.546;6.912;2022-11-20T06:04:26;31.93;;;18.70;;
13651;SDS011;6899;51.546;6.912;2022-11-20T06:06:53;30.53;;;18.17;;
13651;SDS011;6899;51.546;6.912;2022-11-20T06:09:20;31.37;;;17.90;;
13651;SDS011;6899;51.546;6.912;2022-11-20T06:11:47;32.57;;;19.60;;
13651;SDS011;6899;51.546;6.912;2022-11-20T06:14:14;34.70;;;19.60;;
13651;SDS011;6899;51.546;6.912;2022-11-20T06:16:41;29.13;;;18.47;;
13651;SDS011;6899;51.546;6.912;2022-11-20T06:19:07;32.27;;;19.90;;
13651;SDS011;6899;51.546;6.912;2022-11-20T06:21:35;32.03;;;19.60;;
13651;SDS011;6899;51.546;6.912;2022-11-20T06:24:02;31.97;;;18.40;;
13651;SDS011;6899;51.546;6.912;2022-11-20T06:26:29;28.53;;;17.57;;
13651;SDS011;6899;51.546;6.912;2022-11-20T06:28:56;31.57;;;18.63;;
13651;SDS011;6899;51.546;6.912;2022-11-20T06:31:24;29.10;;;18.20;;
13651;SDS011;6899;51.546;6.912;2022-11-20T06:33:51;32.17;;;20.00;;
13651;SDS011;6899;51.546;6.912;2022-11-20T06:36:21;31.13;;;18.03;;
13651;SDS011;6899;51.546;6.912;2022-11-20T06:38:50;32.60;;;18.63;;
13651;SDS011;6899;51.546;6.912;2022-11-20T06:41:20;28.20;;;17.60;;
13651;SDS011;6899;51.546;6.912;2022-11-20T06:43:50;28.97;;;17.00;;
13651;SDS011;6899;51.546;6.912;2022-11-20T06:46:18;28.03;;;17.47;;
13651;SDS011;6899;51.546;6.912;2022-11-20T06:48:46;38.07;;;21.27;;
13651;SDS011;6899;51.546;6.912;2022-11-20T06:51:13;28.93;;;17.17;;
13651;SDS011;6899;51.546;6.912;2022-11-20T06:53:40;34.33;;;18.80;;
13651;SDS011;6899;51.546;6.912;2022-11-20T06:56:09;27.30;;;16.60;;
13651;SDS011;6899;51.546;6.912;2022-11-20T06:58:44;32.77;;;20.77;;
13651;SDS011;6899;51.546;6.912;2022-11-20T07:01:12;30.03;;;16.60;;
13651;SDS011;6899;51.546;6.912;2022-11-20T07:03:40;32.47;;;17.70;;
13651;SDS011;6899;51.546;6.912;2022-11-20T07:06:10;29.20;;;18.67;;
13651;SDS011;6899;51.546;6.912;2022-11-20T07:08:37;30.90;;;18.47;;
13651;SDS011;6899;51.546;6.912;2022-11-20T07:11:05;29.13;;;17.40;;
13651;SDS011;6899;51.546;6.912;2022-11-20T07:13:44;33.87;;;19.53;;
13651;SDS011;6899;51.546;6.912;2022-11-20T07:16:11;34.33;;;20.33;;
13651;SDS011;6899;51.546;6.912;2022-11-20T07:18:38;30.23;;;17.63;;
13651;SDS011;6899;51.546;6.912;2022-11-20T07:21:06;34.87;;;19.10;;
13651;SDS011;6899;51.546;6.912;2022-11-20T07:23:34;31.50;;;17.73;;
13651;SDS011;6899;51.546;6.912;2022-11-20T07:26:02;35.33;;;21.53;;
13651;SDS011;6899;51.546;6.912;2022-11-20T07:28:31;27.57;;;17.63;;
13651;SDS011;6899;51.546;6.912;2022-11-20T07:30:58;29.47;;;17.27;;
13651;SDS011;6899;51.546;6.912;2022-11-20T07:33:26;33.87;;;20.43;;
13651;SDS011;6899;51.546;6.912;2022-11-20T07:35:52;33.83;;;19.57;;
13651;SDS011;6899;51.546;6.912;2022-11-20T07:38:19;30.63;;;19.30;;
13651;SDS011;6899;51.546;6.912;2022-11-20T07:40:46;28.50;;;17.80;;
13651;SDS011;6899;51.546;6.912;2022-11-20T07:43:13;32.57;;;19.40;;
13651;SDS011;6899;51.546;6.912;2022-11-20T07:45:42;31.23;;;19.63;;
13651;SDS011;6899;51.546;6.912;2022-11-20T07:48:09;34.90;;;20.73;;
13651;SDS011;6899;51.546;6.912;2022-11-20T07:50:35;38.53;;;22.93;;
13651;SDS011;6899;51.546;6.912;2022-11-20T07:53:03;33.87;;;19.93;;
13651;SDS011;6899;51.546;6.912;2022-11-20T07:55:30;32.90;;;19.50;;
13651;SDS011;6899;51.546;6.912;2022-11-20T07:57:58;35.77;;;21.80;;
13651;SDS011;6899;51.546;6.912;2022-11-20T08:00:25;38.30;;;23.17;;
13651;SDS011;6899;51.546;6.912;2022-11-20T08:02:54;33.20;;;20.73;;
13651;SDS011;6899;51.546;6.912;2022-11-20T08:05:20;43.13;;;23.97;;
13651;SDS011;6899;51.546;6.912;2022-11-20T08:07:47;43.57;;;25.20;;
13651;SDS011;6899;51.546;6.912;2022-11-20T08:10:15;43.20;;;25.03;;
13651;SDS011;6899;51.546;6.912;2022-11-20T08:12:43;37.03;;;22.50;;
13651;SDS011;6899;51.546;6.912;2022-11-20T08:15:28;40.23;;;24.17;;
13651;SDS011;6899;51.546;6.912;2022-11-20T08:18:00;37.00;;;24.07;;
13651;SDS011;6899;51.546;6.912;2022-11-20T08:20:27;42.70;;;25.47;;
13651;SDS011;6899;51.546;6.912;2022-11-20T08:22:57;36.37;;;22.27;;
13651;SDS011;6899;51.546;6.912;2022-11-20T08:25:25;48.33;;;27.03;;
13651;SDS011;6899;51.546;6.912;2022-11-20T08:27:53;48.23;;;26.60;;
13651;SDS011;6899;51.546;6.912;2022-11-20T08:30:20;48.23;;;27.17;;
13651;SDS011;6899;51.546;6.912;2022-11-20T08:32:46;40.20;;;24.83;;
13651;SDS011;6899;51.546;6.912;2022-11-20T08:35:20;44.87;;;26.90;;
13651;SDS011;6899;51.546;6.912;2022-11-20T08:37:48;39.30;;;23.63;;
13651;SDS011;6899;51.546;6.912;2022-11-20T08:40:15;46.47;;;27.80;;
13651;SDS011;6899;51.546;6.912;2022-11-20T08:42:45;44.17;;;28.07;;
13651;SDS011;6899;51.546;6.912;2022-11-20T08:45:13;51.70;;;31.50;;
13651;SDS011;6899;51.546;6.912;2022-11-20T08:47:40;59.17;;;34.07;;
13651;SDS011;6899;51.546;6.912;2022-11-20T08:50:10;48.97;;;31.07;;
13651;SDS011;6899;51.546;6.912;2022-11-20T08:52:40;57.00;;;35.50;;
13651;SDS011;6899;51.546;6.912;2022-11-20T08:55:07;48.30;;;28.97;;
13651;SDS011;6899;51.546;6.912;2022-11-20T08:57:35;46.20;;;27.67;;
13651;SDS011;6899;51.546;6.912;2022-11-20T09:00:03;47.07;;;28.43;;
13651;SDS011;6899;51.546;6.912;2022-11-20T09:02:31;46.17;;;26.03;;
13651;SDS011;6899;51.546;6.912;2022-11-20T09:04:58;42.73;;;26.73;;
13651;SDS011;6899;51.546;6.912;2022-11-20T09:07:27;42.13;;;27.47;;
13651;SDS011;6899;51.546;6.912;2022-11-20T09:09:57;44.63;;;29.00;;
13651;SDS011;6899;51.546;6.912;2022-11-20T09:12:27;43.90;;;27.77;;
13651;SDS011;6899;51.546;6.912;2022-11-20T09:14:54;48.73;;;29.50;;
13651;SDS011;6899;51.546;6.912;2022-11-20T09:17:21;46.60;;;28.93;;
13651;SDS011;6899;51.546;6.912;2022-11-20T09:19:47;47.37;;;28.43;;
13651;SDS011;6899;51.546;6.912;2022-11-20T09:22:20;44.83;;;27.53;;
13651;SDS011;6899;51.546;6.912;2022-11-20T09:24:47;45.73;;;30.47;;
13651;SDS011;6899;51.546;6.912;2022-11-20T09:27:15;48.90;;;30.17;;
13651;SDS011;6899;51.546;6.912;2022-11-20T09:29:47;51.87;;;30.53;;
13651;SDS011;6899;51.546;6.912;2022-11-20T09:32:14;49.47;;;30.53;;
13651;SDS011;6899;51.546;6.912;2022-11-20T09:34:40;47.80;;;30.93;;
13651;SDS011;6899;51.546;6.912;2022-11-20T09:37:08;46.47;;;29.13;;
13651;SDS011;6899;51.546;6.912;2022-11-20T09:39:35;52.47;;;33.57;;
13651;SDS011;6899;51.546;6.912;2022-11-20T09:42:07;52.97;;;34.27;;
13651;SDS011;6899;51.546;6.912;2022-11-20T09:44:53;59.77;;;38.30;;
13651;SDS011;6899;51.546;6.912;2022-11-20T09:47:33;59.87;;;37.13;;
13651;SDS011;6899;51.546;6.912;2022-11-20T09:50:16;58.50;;;34.67;;
13651;SDS011;6899;51.546;6.912;2022-11-20T09:52:55;55.07;;;36.33;;
13651;SDS011;6899;51.546;6.912;2022-11-20T09:55:31;50.20;;;32.87;;
13651;SDS011;6899;51.546;6.912;2022-11-20T09:57:59;57.30;;;35.23;;
13651;SDS011;6899;51.546;6.912;2022-11-20T10:00:26;56.20;;;35.80;;
13651;SDS011;6899;51.546;6.912;2022-11-20T10:02:55;57.23;;;37.47;;
13651;SDS011;6899;51.546;6.912;2022-11-20T10:05:27;70.63;;;44.17;;
13651;SDS011;6899;51.546;6.912;2022-11-20T10:08:07;71.47;;;46.23;;
13651;SDS011;6899;51.546;6.912;2022-11-20T10:10:42;69.40;;;42.67;;
13651;SDS011;6899;51.546;6.912;2022-11-20T10:13:20;64.80;;;42.80;;
13651;SDS011;6899;51.546;6.912;2022-11-20T10:15:59;67.37;;;45.33;;
13651;SDS011;6899;51.546;6.912;2022-11-20T10:18:37;75.47;;;51.23;;
13651;SDS011;6899;51.546;6.912;2022-11-20T10:21:13;81.90;;;53.93;;
13651;SDS011;6899;51.546;6.912;2022-11-20T10:23:53;85.83;;;53.93;;
13651;SDS011;6899;51.546;6.912;2022-11-20T10:26:43;94.77;;;60.27;;
13651;SDS011;6899;51.546;6.912;2022-11-20T10:29:21;100.33;;;61.17;;
13651;SDS011;6899;51.546;6.912;2022-11-20T10:31:56;97.90;;;59.67;;
13651;SDS011;6899;51.546;6.912;2022-11-20T10:34:28;76.40;;;50.53;;
13651;SDS011;6899;51.546;6.912;2022-11-20T10:37:00;79.80;;;53.37;;
13651;SDS011;6899;51.546;6.912;2022-11-20T10:39:35;85.13;;;53.17;;
13651;SDS011;6899;51.546;6.912;2022-11-20T10:42:07;75.33;;;47.00;;
13651;SDS011;6899;51.546;6.912;2022-11-20T10:44:46;75.40;;;47.00;;
13651;SDS011;6899;51.546;6.912;2022-11-20T10:47:30;67.43;;;44.03;;
13651;SDS011;6899;51.546;6.912;2022-11-20T10:50:00;75.43;;;48.22;;
13651;SDS011;6899;51.546;6.912;2022-11-20T10:52:31;74.13;;;48.42;;
13651;SDS011;6899;51.546;6.912;2022-11-20T10:55:08;66.53;;;45.03;;
13651;SDS011;6899;51.546;6.912;2022-11-20T10:57:51;59.55;;;39.88;;
13651;SDS011;6899;51.546;6.912;2022-11-20T11:00:22;61.38;;;40.70;;
13651;SDS011;6899;51.546;6.912;2022-11-20T11:02:57;57.92;;;40.47;;
13651;SDS011;6899;51.546;6.912;2022-11-20T11:05:31;57.67;;;39.20;;
13651;SDS011;6899;51.546;6.912;2022-11-20T11:08:02;56.67;;;39.92;;
13651;SDS011;6899;51.546;6.912;2022-11-20T11:10:32;58.35;;;39.22;;
13651;SDS011;6899;51.546;6.912;2022-11-20T11:13:06;54.72;;;37.38;;
13651;SDS011;6899;51.546;6.912;2022-11-20T11:15:46;54.17;;;36.22;;
13651;SDS011;6899;51.546;6.912;2022-11-20T11:18:22;52.80;;;35.85;;
13651;SDS011;6899;51.546;6.912;2022-11-20T11:20:50;51.75;;;33.55;;
13651;SDS011;6899;51.546;6.912;2022-11-20T11:23:22;47.15;;;31.63;;
13651;SDS011;6899;51.546;6.912;2022-11-20T11:25:57;47.45;;;32.38;;
13651;SDS011;6899;51.546;6.912;2022-11-20T11:28:27;46.00;;;30.58;;
13651;SDS011;6899;51.546;6.912;2022-11-20T11:30:56;42.17;;;29.27;;
13651;SDS011;6899;51.546;6.912;2022-11-20T11:33:23;38.00;;;28.30;;
13651;SDS011;6899;51.546;6.912;2022-11-20T11:35:51;29.67;;;20.77;;
13651;SDS011;6899;51.546;6.912;2022-11-20T11:38:23;28.05;;;18.90;;
13651;SDS011;6899;51.546;6.912;2022-11-20T11:40:55;27.58;;;19.15;;
13651;SDS011;6899;51.546;6.912;2022-11-20T11:43:23;28.27;;;18.88;;
13651;SDS011;6899;51.546;6.912;2022-11-20T11:49:13;29.25;;;18.13;;
13651;SDS011;6899;51.546;6.912;2022-11-20T11:51:46;26.10;;;17.77;;
13651;SDS011;6899;51.546;6.912;2022-11-20T11:54:23;27.23;;;18.23;;
13651;SDS011;6899;51.546;6.912;2022-11-20T11:56:54;27.13;;;18.20;;
13651;SDS011;6899;51.546;6.912;2022-11-20T11:59:25;28.05;;;19.10;;
13651;SDS011;6899;51.546;6.912;2022-11-20T12:02:01;25.20;;;17.85;;
13651;SDS011;6899;51.546;6.912;2022-11-20T12:04:49;31.88;;;22.20;;
13651;SDS011;6899;51.546;6.912;2022-11-20T12:07:22;24.80;;;17.40;;
13651;SDS011;6899;51.546;6.912;2022-11-20T12:09:56;26.50;;;17.00;;
13651;SDS011;6899;51.546;6.912;2022-11-20T12:12:24;30.60;;;20.92;;
13651;SDS011;6899;51.546;6.912;2022-11-20T12:14:56;24.63;;;16.33;;
13651;SDS011;6899;51.546;6.912;2022-11-20T12:17:25;24.75;;;16.15;;
13651;SDS011;6899;51.546;6.912;2022-11-20T12:19:52;26.48;;;16.30;;
13651;SDS011;6899;51.546;6.912;2022-11-20T12:22:21;27.88;;;17.27;;
13651;SDS011;6899;51.546;6.912;2022-11-20T12:25:00;24.73;;;16.88;;
13651;SDS011;6899;51.546;6.912;2022-11-20T12:30:41;26.15;;;16.95;;
13651;SDS011;6899;51.546;6.912;2022-11-20T12:36:34;28.13;;;18.98;;
13651;SDS011;6899;51.546;6.912;2022-11-20T12:39:18;30.85;;;19.30;;
13651;SDS011;6899;51.546;6.912;2022-11-20T12:42:04;24.10;;;15.98;;
13651;SDS011;6899;51.546;6.912;2022-11-20T12:45:14;26.92;;;16.55;;
13651;SDS011;6899;51.546;6.912;2022-11-20T12:48:03;28.58;;;17.42;;
13651;SDS011;6899;51.546;6.912;2022-11-20T12:50:47;28.40;;;18.25;;
13651;SDS011;6899;51.546;6.912;2022-11-20T12:53:26;29.80;;;19.45;;
13651;SDS011;6899;51.546;6.912;2022-11-20T12:56:01;25.73;;;16.08;;
13651;SDS011;6899;51.546;6.912;2022-11-20T12:58:45;27.35;;;15.10;;
13651;SDS011;6899;51.546;6.912;2022-11-20T13:01:23;26.92;;;16.75;;
13651;SDS011;6899;51.546;6.912;2022-11-20T13:04:07;26.40;;;15.85;;
13651;SDS011;6899;51.546;6.912;2022-11-20T13:06:46;30.38;;;16.90;;
13651;SDS011;6899;51.546;6.912;2022-11-20T13:09:19;25.67;;;16.15;;
13651;SDS011;6899;51.546;6.912;2022-11-20T13:12:05;30.13;;;17.35;;
13651;SDS011;6899;51.546;6.912;2022-11-20T13:14:37;26.75;;;17.15;;
13651;SDS011;6899;51.546;6.912;2022-11-20T13:17:13;27.10;;;16.95;;
13651;SDS011;6899;51.546;6.912;2022-11-20T13:19:49;27.33;;;16.85;;
13651;SDS011;6899;51.546;6.912;2022-11-20T13:22:25;28.92;;;17.50;;
13651;SDS011;6899;51.546;6.912;2022-11-20T13:24:54;27.17;;;15.45;;
13651;SDS011;6899;51.546;6.912;2022-11-20T13:27:22;27.50;;;16.02;;
13651;SDS011;6899;51.546;6.912;2022-11-20T13:30:00;24.88;;;15.93;;
13651;SDS011;6899;51.546;6.912;2022-11-20T13:32:47;24.73;;;15.60;;
13651;SDS011;6899;51.546;6.912;2022-11-20T13:35:23;25.85;;;16.23;;
13651;SDS011;6899;51.546;6.912;2022-11-20T13:38:04;27.90;;;16.47;;
13651;SDS011;6899;51.546;6.912;2022-11-20T13:40:34;28.10;;;17.45;;
13651;SDS011;6899;51.546;6.912;2022-11-20T13:43:18;28.17;;;17.75;;
13651;SDS011;6899;51.546;6.912;2022-11-20T13:45:58;26.88;;;16.55;;
13651;SDS011;6899;51.546;6.912;2022-11-20T13:48:27;30.83;;;18.25;;
13651;SDS011;6899;51.546;6.912;2022-11-20T13:51:15;32.00;;;18.50;;
13651;SDS011;6899;51.546;6.912;2022-11-20T13:54:04;33.38;;;19.77;;
13651;SDS011;6899;51.546;6.912;2022-11-20T13:56:54;35.53;;;19.00;;
13651;SDS011;6899;51.546;6.912;2022-11-20T13:59:42;36.03;;;21.25;;
13651;SDS011;6899;51.546;6.912;2022-11-20T14:02:19;35.88;;;19.83;;
13651;SDS011;6899;51.546;6.912;2022-11-20T14:04:55;42.63;;;25.23;;
13651;SDS011;6899;51.546;6.912;2022-11-20T14:07:34;37.93;;;21.00;;
13651;SDS011;6899;51.546;6.912;2022-11-20T14:10:24;35.65;;;21.10;;
13651;SDS011;6899;51.546;6.912;2022-11-20T14:12:57;35.45;;;19.83;;
13651;SDS011;6899;51.546;6.912;2022-11-20T14:15:45;35.00;;;18.65;;
13651;SDS011;6899;51.546;6.912;2022-11-20T14:18:14;38.37;;;22.20;;
13651;SDS011;6899;51.546;6.912;2022-11-20T14:20:50;42.73;;;25.90;;
13651;SDS011;6899;51.546;6.912;2022-11-20T14:23:24;39.90;;;24.95;;
13651;SDS011;6899;51.546;6.912;2022-11-20T14:26:03;36.23;;;21.43;;
13651;SDS011;6899;51.546;6.912;2022-11-20T14:28:30;36.47;;;21.50;;
13651;SDS011;6899;51.546;6.912;2022-11-20T14:30:57;41.57;;;25.00;;
13651;SDS011;6899;51.546;6.912;2022-11-20T14:33:25;39.17;;;24.13;;
13651;SDS011;6899;51.546;6.912;2022-11-20T14:35:53;39.37;;;21.50;;
13651;SDS011;6899;51.546;6.912;2022-11-20T14:38:24;38.90;;;22.03;;
13651;SDS011;6899;51.546;6.912;2022-11-20T14:40:53;37.13;;;20.98;;
13651;SDS011;6899;51.546;6.912;2022-11-20T14:43:23;39.47;;;22.40;;
13651;SDS011;6899;51.546;6.912;2022-11-20T14:45:57;39.10;;;21.63;;
13651;SDS011;6899;51.546;6.912;2022-11-20T14:48:28;37.93;;;20.93;;
13651;SDS011;6899;51.546;6.912;2022-11-20T14:50:57;48.53;;;24.17;;
13651;SDS011;6899;51.546;6.912;2022-11-20T14:53:24;41.58;;;22.75;;
13651;SDS011;6899;51.546;6.912;2022-11-20T14:55:55;37.43;;;21.93;;
13651;SDS011;6899;51.546;6.912;2022-11-20T14:58:28;40.40;;;21.67;;
13651;SDS011;6899;51.546;6.912;2022-11-20T15:00:59;38.80;;;22.17;;
13651;SDS011;6899;51.546;6.912;2022-11-20T15:03:32;38.23;;;22.27;;
13651;SDS011;6899;51.546;6.912;2022-11-20T15:05:59;38.45;;;22.00;;